Weather History for Galliano, LA

Change the Weather History Date:

Friday, March 1, 2013

  Actual Average (KAXO) Record (KAXO)
Temperature  
Mean Temperature 52 °F -  
Max Temperature 62 °F 61 °F 71 °F (2008)
Min Temperature 42 °F 57 °F 39 °F (2009)
Degree Days  
Heating Degree Days 13    
Growing Degree Days 2 (Base 50)    
Moisture  
Dew Point 36 °F    
Average Humidity 58    
Maximum Humidity 81    
Minimum Humidity 34    
Precipitation  
Precipitation 0.00 in - - ()
Sea Level Pressure  
Sea Level Pressure 30.13 in    
Wind  
Wind Speed 7 mph (West)    
Max Wind Speed 21 mph    
Max Gust Speed 25 mph    
Visibility 10 miles    
Events      
Averages and records for this station are not official NWS values.
T = Trace of Precipitation, MM = Missing Value Source: NWS Daily Summary

Daily Weather History Graph

Daily Weather History Graph

Search for Another Location

Airport:

Trip Planner

Search our weather history database for the weather conditions in past years. The results will help you decide how hot, cold, wet, or windy it might be!

Date:

Astronomy

Mar. 01, 2013 Rise Set
Actual Time 6:26 AM CST 6:00 PM CST
Civil Twilight 6:02 AM CST 6:24 PM CST
Nautical Twilight 5:34 AM CST 6:52 PM CST
Astronomical Twilight 5:07 AM CST 7:19 PM CST
Moon 10:08 PM CST (3/1) 8:35 AM CST (3/1)
Length of Visible Light 12h 22m
Length of Day
11h 34m
Waning Gibbous, 83% of the Moon is Illuminated
Mar 1
Waning Gibbous
Mar 4
Last Quarter
Mar 11
New
Mar 19
First Quarter
Mar 27
Full

Hourly Weather History & Observations

Time (CST) Temp. Windchill Dew Point Humidity Pressure Visibility Wind Dir Wind Speed Gust Speed Precip Events Conditions
12:15 AM 46.4 °F 44.3 °F 37.4 °F 71% 30.14 in 10.0 mi West 4.6 mph - N/A   Unknown
12:35 AM 46.4 °F 45.2 °F 37.4 °F 71% 30.14 in 10.0 mi West 3.5 mph - N/A   Unknown
1:15 AM 46.4 °F 43.5 °F 39.2 °F 76% 30.14 in 10.0 mi West 5.8 mph - N/A   Unknown
1:35 AM 46.4 °F 44.3 °F 39.2 °F 76% 30.13 in 10.0 mi West 4.6 mph - N/A   Unknown
1:55 AM 44.6 °F 42.2 °F 39.2 °F 81% 30.12 in 10.0 mi West 4.6 mph - N/A   Unknown
2:15 AM 44.6 °F 42.2 °F 39.2 °F 81% 30.12 in 10.0 mi West 4.6 mph - N/A   Unknown
2:35 AM 46.4 °F 45.2 °F 39.2 °F 76% 30.12 in 10.0 mi West 3.5 mph - N/A   Unknown
2:55 AM 46.4 °F 45.2 °F 39.2 °F 76% 30.12 in 10.0 mi West 3.5 mph - N/A   Unknown
3:55 AM 46.4 °F - 41.0 °F 81% 30.12 in 10.0 mi Calm Calm - N/A   Unknown
4:15 AM 46.4 °F 44.3 °F 39.2 °F 76% 30.12 in 10.0 mi West 4.6 mph - N/A   Unknown
4:35 AM 46.4 °F 43.5 °F 41.0 °F 81% 30.12 in 10.0 mi West 5.8 mph - N/A   Unknown
4:55 AM 46.4 °F 43.5 °F 39.2 °F 76% 30.12 in 10.0 mi West 5.8 mph - N/A   Unknown
5:15 AM 46.4 °F 43.5 °F 39.2 °F 76% 30.13 in 10.0 mi West 5.8 mph - N/A   Unknown
5:35 AM 46.4 °F 44.3 °F 39.2 °F 76% 30.13 in 10.0 mi West 4.6 mph - N/A   Unknown
6:15 AM 46.4 °F 44.3 °F 39.2 °F 76% 30.13 in 10.0 mi West 4.6 mph - N/A   Unknown
6:35 AM 46.4 °F 43.5 °F 39.2 °F 76% 30.13 in 10.0 mi West 5.8 mph - N/A   Unknown
6:55 AM 46.4 °F 43.5 °F 39.2 °F 76% 30.14 in 10.0 mi West 5.8 mph - N/A   Unknown
7:15 AM 46.4 °F 43.5 °F 39.2 °F 76% 30.15 in 10.0 mi West 5.8 mph - N/A   Unknown
7:35 AM 46.4 °F 43.5 °F 41.0 °F 81% 30.15 in 10.0 mi West 5.8 mph - N/A   Unknown
7:55 AM 48.2 °F - 41.0 °F 76% 30.15 in 10.0 mi West 4.6 mph - N/A   Unknown
8:15 AM 50.0 °F - 41.0 °F 71% 30.16 in 10.0 mi West 6.9 mph - N/A   Unknown
8:35 AM 50.0 °F - 39.2 °F 66% 30.16 in 10.0 mi North - - N/A   Unknown
9:15 AM 51.8 °F - 39.2 °F 62% 30.16 in 10.0 mi WNW 6.9 mph - N/A   Unknown
9:35 AM 51.8 °F - 37.4 °F 58% 30.16 in 10.0 mi West 9.2 mph - N/A   Unknown
9:55 AM 53.6 °F - 37.4 °F 54% 30.16 in 10.0 mi WNW 8.1 mph - N/A   Unknown
10:15 AM 53.6 °F - 37.4 °F 54% 30.16 in 10.0 mi West 10.4 mph - N/A   Unknown
10:35 AM 55.4 °F - 37.4 °F 51% 30.15 in 10.0 mi WNW 11.5 mph - N/A   Unknown
10:55 AM 55.4 °F - 37.4 °F 51% 30.16 in 10.0 mi West 9.2 mph - N/A   Unknown
11:15 AM 57.2 °F - 35.6 °F 44% 30.15 in 10.0 mi WNW 11.5 mph 18.4 mph N/A   Unknown
11:35 AM 57.2 °F - 33.8 °F 41% 30.15 in 10.0 mi West 12.7 mph 17.3 mph N/A   Unknown
12:15 PM 59.0 °F - 33.8 °F 39% 30.13 in 10.0 mi West 11.5 mph 18.4 mph N/A   Unknown
12:35 PM 59.0 °F - 35.6 °F 42% 30.12 in 10.0 mi WSW 12.7 mph 16.1 mph N/A   Unknown
12:55 PM 59.0 °F - 33.8 °F 39% 30.11 in 10.0 mi WNW 8.1 mph 20.7 mph N/A   Unknown
1:15 PM 60.8 °F - 35.6 °F 39% 30.10 in 10.0 mi West 9.2 mph 18.4 mph N/A   Unknown
1:35 PM 60.8 °F - 33.8 °F 36% 30.09 in 10.0 mi West 12.7 mph 20.7 mph N/A   Unknown
1:55 PM 60.8 °F - 33.8 °F 36% 30.08 in 10.0 mi West 12.7 mph - N/A   Unknown
2:15 PM 62.6 °F - 33.8 °F 34% 30.08 in 10.0 mi WNW 8.1 mph 23.0 mph N/A   Unknown
2:35 PM 62.6 °F - 35.6 °F 37% 30.07 in 10.0 mi WNW 15.0 mph 19.6 mph N/A   Unknown
3:15 PM 62.6 °F - 33.8 °F 34% 30.06 in 10.0 mi WSW 6.9 mph 17.3 mph N/A   Unknown
3:35 PM 60.8 °F - 32.0 °F 34% 30.06 in 10.0 mi West 11.5 mph 19.6 mph N/A   Unknown
3:55 PM 60.8 °F - 32.0 °F 34% 30.06 in 10.0 mi West 10.4 mph - N/A   Unknown
4:15 PM 60.8 °F - 32.0 °F 34% 30.07 in 10.0 mi NW 16.1 mph - N/A   Unknown
4:35 PM 60.8 °F - 32.0 °F 34% 30.07 in 10.0 mi NW 20.7 mph 24.2 mph N/A   Unknown
4:55 PM 59.0 °F - 30.2 °F 34% 30.07 in 10.0 mi NW 16.1 mph 25.3 mph N/A   Unknown
5:15 PM 59.0 °F - 30.2 °F 34% 30.08 in 10.0 mi WNW 13.8 mph - N/A   Unknown
5:35 PM 55.4 °F - 30.2 °F 38% 30.09 in 10.0 mi WNW 9.2 mph - N/A   Unknown
5:55 PM 53.6 °F - 32.0 °F 44% 30.09 in 10.0 mi WNW 9.2 mph - N/A   Unknown
6:15 PM 53.6 °F - 30.2 °F 41% 30.10 in 10.0 mi WNW 12.7 mph - N/A   Unknown
6:35 PM 53.6 °F - 28.4 °F 38% 30.11 in 10.0 mi WNW 13.8 mph 17.3 mph N/A   Unknown
6:55 PM 51.8 °F - 30.2 °F 44% 30.12 in 10.0 mi WNW 8.1 mph - N/A   Unknown
7:15 PM 50.0 °F - 32.0 °F 50% 30.13 in 10.0 mi WNW 5.8 mph - N/A   Unknown
7:35 PM 46.4 °F 43.5 °F 32.0 °F 57% 30.13 in 10.0 mi West 5.8 mph - N/A   Unknown
7:55 PM 46.4 °F 42.9 °F 32.0 °F 57% 30.14 in 10.0 mi West 6.9 mph - N/A   Unknown
8:15 PM 44.6 °F 41.4 °F 32.0 °F 61% 30.15 in 10.0 mi West 5.8 mph - N/A   Unknown
8:35 PM 46.4 °F 44.3 °F 32.0 °F 57% 30.16 in 10.0 mi West 4.6 mph - N/A   Unknown
8:55 PM 46.4 °F 44.3 °F 32.0 °F 57% 30.16 in 10.0 mi West 4.6 mph - N/A   Unknown
9:15 PM 44.6 °F 42.2 °F 33.8 °F 66% 30.17 in 10.0 mi West 4.6 mph - N/A   Unknown
9:35 PM 44.6 °F 43.1 °F 33.8 °F 66% 30.17 in 10.0 mi West 3.5 mph - N/A   Unknown
9:55 PM 46.4 °F - 32.0 °F 57% 30.18 in 10.0 mi Calm Calm - N/A   Unknown
10:15 PM 44.6 °F 43.1 °F 35.6 °F 71% 30.17 in 10.0 mi WNW 3.5 mph - N/A   Unknown
10:35 PM 44.6 °F 43.1 °F 33.8 °F 66% 30.17 in 10.0 mi WNW 3.5 mph - N/A   Unknown
10:55 PM 44.6 °F 42.2 °F 33.8 °F 66% 30.17 in 10.0 mi WNW 4.6 mph - N/A   Unknown
11:15 PM 42.8 °F 41.1 °F 33.8 °F 70% 30.17 in 10.0 mi WNW 3.5 mph - N/A   Unknown
11:35 PM 44.6 °F 43.1 °F 33.8 °F 66% 30.17 in 10.0 mi NW 3.5 mph - N/A   Unknown
11:55 PM 42.8 °F 41.1 °F 35.6 °F 76% 30.17 in 10.0 mi NNW 3.5 mph - N/A   Unknown